createdAt,value
2018-06-29T00:01:07.200Z,19.00
2018-06-29T00:03:35.660Z,19.00
2018-06-29T00:06:04.125Z,18.90
2018-06-29T00:08:32.940Z,18.90
2018-06-29T00:11:01.541Z,18.80
2018-06-29T00:13:30.013Z,18.80
2018-06-29T00:15:58.457Z,18.70
2018-06-29T00:18:26.892Z,18.60
2018-06-29T00:20:55.377Z,18.60
2018-06-29T00:23:23.800Z,18.60
2018-06-29T00:25:52.337Z,18.60
2018-06-29T00:28:20.800Z,18.60
2018-06-29T00:30:49.266Z,18.60
2018-06-29T00:33:17.693Z,18.70
2018-06-29T00:35:46.252Z,18.70
2018-06-29T00:38:14.700Z,18.60
2018-06-29T00:40:43.215Z,18.60
2018-06-29T00:43:11.660Z,18.60
2018-06-29T00:45:40.205Z,18.60
2018-06-29T00:48:08.680Z,18.50
2018-06-29T00:50:37.096Z,18.50
2018-06-29T00:53:05.609Z,18.40
2018-06-29T00:55:34.065Z,18.30
2018-06-29T00:58:02.543Z,18.30
2018-06-29T01:00:31.005Z,18.20
2018-06-29T01:02:59.531Z,18.10
2018-06-29T01:05:27.980Z,18.00
2018-06-29T01:07:56.452Z,17.80
2018-06-29T01:10:25.044Z,17.90
2018-06-29T01:12:53.523Z,17.80
2018-06-29T01:15:22.100Z,17.60
2018-06-29T01:17:50.526Z,17.60
2018-06-29T01:20:19.009Z,17.40
2018-06-29T01:25:15.641Z,17.40
2018-06-29T01:27:44.081Z,17.40
2018-06-29T01:30:12.557Z,17.30
2018-06-29T01:32:44.720Z,17.20
2018-06-29T01:35:13.216Z,17.20
2018-06-29T01:37:41.657Z,17.30
2018-06-29T01:40:10.156Z,17.20
2018-06-29T01:42:38.611Z,17.10
2018-06-29T01:47:35.340Z,17.10
2018-06-29T01:50:03.968Z,16.90
2018-06-29T01:52:32.497Z,16.90
2018-06-29T01:55:00.973Z,16.90
2018-06-29T01:57:29.864Z,16.80
2018-06-29T01:59:58.325Z,16.70
2018-06-29T02:02:26.932Z,16.70
2018-06-29T02:04:55.380Z,16.70
2018-06-29T02:07:23.888Z,16.70
2018-06-29T02:09:52.321Z,16.60
2018-06-29T02:12:20.756Z,16.50
2018-06-29T02:14:49.202Z,16.50
2018-06-29T02:17:17.633Z,16.40
2018-06-29T02:19:46.100Z,16.40
2018-06-29T02:22:14.561Z,16.40
2018-06-29T02:24:42.992Z,16.40
2018-06-29T02:27:11.441Z,16.40
2018-06-29T02:29:39.873Z,16.30
2018-06-29T02:32:08.657Z,16.40
2018-06-29T02:34:37.224Z,16.30
2018-06-29T02:37:05.703Z,16.30
2018-06-29T02:39:34.177Z,16.30
2018-06-29T02:42:02.673Z,16.20
2018-06-29T02:44:31.114Z,16.50
2018-06-29T02:46:59.580Z,16.60
2018-06-29T02:49:28.016Z,16.60
2018-06-29T02:51:56.449Z,16.60
2018-06-29T02:54:24.900Z,16.60
2018-06-29T02:56:53.344Z,16.60
2018-06-29T02:59:21.811Z,16.60
2018-06-29T03:01:50.258Z,16.40
2018-06-29T03:04:18.839Z,16.40
2018-06-29T03:06:47.300Z,16.30
2018-06-29T03:09:15.948Z,16.20
2018-06-29T03:11:44.417Z,16.30
2018-06-29T03:14:12.849Z,16.40
2018-06-29T03:16:41.336Z,16.40
2018-06-29T03:19:09.753Z,16.30
2018-06-29T03:21:38.234Z,16.40
2018-06-29T03:24:06.755Z,16.30
2018-06-29T03:26:35.452Z,16.30
2018-06-29T03:29:03.912Z,16.30
2018-06-29T03:31:32.402Z,16.30
2018-06-29T03:34:01.125Z,16.20
2018-06-29T03:36:29.585Z,16.20
2018-06-29T03:38:58.040Z,16.20
2018-06-29T03:41:26.508Z,16.20
2018-06-29T03:43:54.999Z,16.10
2018-06-29T03:46:23.481Z,16.10
2018-06-29T03:48:52.012Z,16.20
2018-06-29T03:51:20.513Z,16.20
2018-06-29T03:53:48.945Z,16.50
2018-06-29T03:56:17.379Z,16.40
2018-06-29T03:58:45.824Z,16.30
2018-06-29T04:01:14.278Z,16.50
2018-06-29T04:03:42.717Z,16.80
2018-06-29T04:06:11.428Z,17.10
2018-06-29T04:08:39.885Z,17.40
2018-06-29T04:11:08.380Z,17.50
2018-06-29T04:13:36.965Z,17.50
2018-06-29T04:16:05.545Z,17.50
2018-06-29T04:18:34.022Z,17.70
2018-06-29T04:21:02.521Z,17.70
2018-06-29T04:23:31.013Z,18.00
2018-06-29T04:28:27.609Z,17.60
2018-06-29T04:30:56.088Z,17.20
2018-06-29T04:33:24.683Z,16.80
2018-06-29T04:35:53.150Z,16.80
2018-06-29T04:38:21.648Z,17.30
2018-06-29T04:40:50.094Z,17.90
2018-06-29T04:43:18.528Z,18.00
2018-06-29T04:45:46.989Z,18.20
2018-06-29T04:48:15.464Z,18.30
2018-06-29T04:50:44.295Z,18.50
2018-06-29T04:55:40.893Z,18.40
2018-06-29T04:58:09.366Z,18.40
2018-06-29T05:00:37.929Z,18.90
2018-06-29T05:03:06.381Z,19.10
2018-06-29T05:08:02.967Z,18.70
2018-06-29T05:10:31.420Z,18.90
2018-06-29T05:12:59.845Z,19.10
2018-06-29T05:15:28.416Z,19.30
2018-06-29T05:17:56.830Z,19.30
2018-06-29T05:20:25.325Z,19.60
2018-06-29T05:22:54.969Z,19.00
2018-06-29T05:25:23.449Z,19.40
2018-06-29T05:27:52.021Z,19.80
2018-06-29T05:30:20.496Z,19.60
2018-06-29T05:32:48.942Z,19.40
2018-06-29T05:37:45.624Z,19.90
2018-06-29T05:40:14.125Z,20.50
2018-06-29T05:42:42.623Z,20.50
2018-06-29T05:45:11.021Z,20.60
2018-06-29T05:47:39.578Z,19.80
2018-06-29T05:50:08.128Z,20.10
2018-06-29T05:52:36.608Z,19.80
2018-06-29T05:55:06.144Z,20.30
2018-06-29T05:57:34.862Z,19.80
2018-06-29T06:00:03.414Z,19.90
2018-06-29T06:02:31.971Z,19.60
2018-06-29T06:05:00.427Z,20.20
2018-06-29T06:09:57.170Z,20.60
2018-06-29T06:12:25.640Z,20.30
2018-06-29T06:14:54.091Z,20.60
2018-06-29T06:17:22.576Z,20.20
2018-06-29T06:20:04.952Z,20.30
2018-06-29T06:22:33.796Z,20.10
2018-06-29T06:25:02.329Z,21.10
2018-06-29T06:27:30.879Z,20.30
2018-06-29T06:29:59.340Z,21.30
2018-06-29T06:32:27.845Z,21.80
2018-06-29T06:34:56.296Z,21.40
2018-06-29T06:37:24.741Z,21.40
2018-06-29T06:39:53.280Z,21.20
2018-06-29T06:42:21.748Z,21.30
2018-06-29T06:44:50.236Z,22.40
2018-06-29T06:47:18.672Z,21.60
2018-06-29T06:49:47.143Z,21.90
2018-06-29T06:52:15.608Z,21.80
2018-06-29T06:54:44.033Z,21.60
2018-06-29T06:57:12.473Z,22.60
2018-06-29T06:59:40.922Z,22.10
2018-06-29T07:02:09.365Z,21.70
2018-06-29T07:04:37.816Z,21.80
2018-06-29T07:07:06.304Z,22.00
2018-06-29T07:09:34.976Z,21.70
2018-06-29T07:12:03.468Z,21.10
2018-06-29T07:14:31.990Z,21.50
2018-06-29T07:17:00.437Z,22.30
2018-06-29T07:19:29.353Z,22.10
2018-06-29T07:24:26.013Z,23.90
2018-06-29T07:26:54.505Z,21.70
2018-06-29T07:29:22.999Z,21.70
2018-06-29T07:31:51.478Z,22.40
2018-06-29T07:34:19.920Z,22.50
2018-06-29T07:36:48.401Z,22.40
2018-06-29T07:39:16.844Z,23.30
2018-06-29T07:41:45.300Z,23.40
2018-06-29T07:44:13.733Z,22.40
2018-06-29T07:46:42.267Z,22.60
2018-06-29T07:49:10.662Z,23.70
2018-06-29T07:51:39.169Z,23.30
2018-06-29T07:54:07.697Z,23.00
2018-06-29T07:56:36.537Z,23.00
2018-06-29T07:59:04.976Z,23.70
2018-06-29T08:01:33.492Z,23.40
2018-06-29T08:04:02.162Z,23.10
2018-06-29T08:06:30.623Z,23.10
2018-06-29T08:08:59.110Z,23.10
2018-06-29T08:11:27.620Z,23.60
2018-06-29T08:13:56.057Z,23.80
2018-06-29T08:16:24.508Z,23.60
2018-06-29T08:18:52.994Z,24.00
2018-06-29T08:21:21.469Z,23.80
2018-06-29T08:23:49.929Z,24.20
2018-06-29T08:26:25.862Z,24.40
2018-06-29T08:28:54.381Z,24.30
2018-06-29T08:31:22.871Z,24.60
2018-06-29T08:33:51.323Z,24.30
2018-06-29T08:36:19.757Z,24.50
2018-06-29T08:38:48.246Z,25.00
2018-06-29T08:41:16.727Z,24.20
2018-06-29T08:43:45.196Z,25.20
2018-06-29T08:46:13.661Z,24.80
2018-06-29T08:48:42.129Z,24.60
2018-06-29T08:51:10.567Z,24.30
2018-06-29T08:53:39.094Z,24.60
2018-06-29T08:56:07.837Z,25.10
2018-06-29T08:58:36.316Z,25.50
2018-06-29T09:03:32.912Z,25.00
2018-06-29T09:06:01.449Z,25.20
2018-06-29T09:08:29.904Z,25.40
2018-06-29T09:10:58.402Z,25.30
2018-06-29T09:13:26.858Z,24.90
2018-06-29T09:15:55.360Z,24.80
2018-06-29T09:18:23.841Z,25.10
2018-06-29T09:20:52.292Z,25.70
2018-06-29T09:23:20.817Z,25.90
2018-06-29T09:25:49.280Z,25.50
2018-06-29T09:28:17.745Z,25.50
2018-06-29T09:30:46.271Z,25.40
2018-06-29T09:33:14.735Z,25.50
2018-06-29T09:38:11.344Z,26.20
2018-06-29T09:40:39.813Z,26.10
2018-06-29T09:43:08.249Z,25.70
2018-06-29T09:45:36.689Z,26.30
2018-06-29T09:48:05.279Z,25.70
2018-06-29T09:50:34.100Z,26.00
2018-06-29T09:53:02.521Z,26.30
2018-06-29T09:55:30.982Z,26.60
2018-06-29T09:57:59.450Z,26.60
2018-06-29T10:00:30.961Z,25.90
2018-06-29T10:03:00.030Z,26.40
2018-06-29T10:05:29.240Z,26.20
2018-06-29T10:07:57.710Z,26.10
2018-06-29T10:10:26.161Z,26.00
2018-06-29T10:12:54.606Z,26.00
2018-06-29T10:15:23.124Z,26.30
2018-06-29T10:17:51.550Z,25.80
2018-06-29T10:20:20.098Z,25.80
2018-06-29T10:22:48.456Z,26.10
2018-06-29T10:25:16.968Z,26.10
2018-06-29T10:27:45.393Z,26.60
2018-06-29T10:30:13.878Z,26.80
2018-06-29T10:32:42.337Z,26.60
2018-06-29T10:37:39.152Z,26.80
2018-06-29T10:40:07.660Z,27.00
2018-06-29T10:42:36.175Z,26.60
2018-06-29T10:45:04.733Z,26.50
2018-06-29T10:47:33.209Z,26.20
2018-06-29T10:52:29.796Z,27.00
2018-06-29T10:54:58.259Z,26.70
2018-06-29T10:57:27.084Z,26.60
2018-06-29T10:59:55.538Z,26.70
2018-06-29T11:02:24.017Z,27.20
2018-06-29T11:04:52.472Z,27.10
2018-06-29T11:07:20.934Z,27.20
2018-06-29T11:09:49.437Z,26.80
2018-06-29T11:12:17.979Z,26.80
2018-06-29T11:14:46.472Z,27.50
2018-06-29T11:17:14.953Z,27.10
2018-06-29T11:19:43.381Z,27.50
2018-06-29T11:22:11.816Z,26.80
2018-06-29T11:24:40.332Z,27.00
2018-06-29T11:27:08.957Z,27.50
2018-06-29T11:29:37.409Z,28.00
2018-06-29T11:32:05.888Z,27.60
2018-06-29T11:34:34.373Z,27.70
2018-06-29T11:37:03.565Z,27.80
2018-06-29T11:39:32.147Z,27.10
2018-06-29T11:42:00.710Z,27.10
2018-06-29T11:44:29.208Z,27.10
2018-06-29T11:46:57.688Z,27.40
2018-06-29T11:49:26.163Z,27.30
2018-06-29T11:51:54.670Z,27.70
2018-06-29T11:54:23.145Z,28.50
2018-06-29T11:56:51.601Z,27.70
2018-06-29T11:59:20.073Z,27.80
2018-06-29T12:01:48.553Z,28.50
2018-06-29T12:04:16.993Z,28.10
2018-06-29T12:06:45.476Z,28.20
2018-06-29T12:09:13.904Z,27.60
2018-06-29T12:11:43.232Z,28.10
2018-06-29T12:14:12.021Z,27.60
2018-06-29T12:16:40.476Z,28.10
2018-06-29T12:19:08.912Z,28.00
2018-06-29T12:21:37.383Z,28.00
2018-06-29T12:24:05.854Z,28.00
2018-06-29T12:26:34.362Z,28.50
2018-06-29T12:29:02.938Z,28.10
2018-06-29T12:31:31.442Z,28.00
2018-06-29T12:33:59.910Z,27.90
2018-06-29T12:36:28.436Z,27.60
2018-06-29T12:38:57.039Z,27.50
2018-06-29T12:41:25.665Z,27.70
2018-06-29T12:43:54.216Z,28.50
2018-06-29T12:46:22.696Z,28.80
2018-06-29T12:48:51.124Z,27.90
2018-06-29T12:51:19.767Z,28.90
2018-06-29T12:53:48.197Z,28.80
2018-06-29T12:56:16.689Z,28.90
2018-06-29T12:58:45.159Z,28.50
2018-06-29T13:01:13.703Z,28.40
2018-06-29T13:03:42.148Z,28.30
2018-06-29T13:06:10.671Z,28.60
2018-06-29T13:08:39.141Z,28.60
2018-06-29T13:11:07.968Z,29.30
2018-06-29T13:13:36.473Z,29.40
2018-06-29T13:16:05.250Z,28.90
2018-06-29T13:18:33.745Z,29.20
2018-06-29T13:21:02.248Z,29.20
2018-06-29T13:23:30.681Z,29.10
2018-06-29T13:25:59.154Z,29.40
2018-06-29T13:28:27.698Z,29.40
2018-06-29T13:30:56.217Z,29.10
2018-06-29T13:33:24.712Z,29.40
2018-06-29T13:35:53.148Z,29.30
2018-06-29T13:38:21.580Z,29.30
2018-06-29T13:40:50.080Z,28.80
2018-06-29T13:43:18.533Z,28.60
2018-06-29T13:45:47.057Z,29.00
2018-06-29T13:48:15.617Z,30.00
2018-06-29T13:50:44.144Z,29.20
2018-06-29T13:53:12.597Z,29.60
2018-06-29T13:55:41.045Z,29.10
2018-06-29T14:00:37.636Z,29.00
2018-06-29T14:03:06.138Z,28.90
2018-06-29T14:05:34.628Z,29.10
2018-06-29T14:08:03.076Z,28.90
2018-06-29T14:10:31.814Z,27.90
2018-06-29T14:13:00.332Z,28.30
2018-06-29T14:15:28.792Z,28.20
2018-06-29T14:20:25.778Z,27.90
2018-06-29T14:22:54.251Z,28.10
2018-06-29T14:25:22.725Z,28.20
2018-06-29T14:27:51.177Z,28.70
2018-06-29T14:32:48.477Z,28.10
2018-06-29T14:35:16.966Z,28.30
2018-06-29T14:37:45.417Z,28.30
2018-06-29T14:40:13.900Z,27.80
2018-06-29T14:42:42.339Z,27.90
2018-06-29T14:45:10.849Z,28.10
2018-06-29T14:50:07.521Z,28.40
2018-06-29T14:52:35.952Z,28.20
2018-06-29T14:55:04.429Z,28.10
2018-06-29T14:57:32.920Z,28.50
2018-06-29T15:00:01.384Z,28.30
2018-06-29T15:02:29.883Z,28.60
2018-06-29T15:04:58.307Z,28.40
2018-06-29T15:07:26.745Z,28.20
2018-06-29T15:09:55.232Z,28.20
2018-06-29T15:12:23.752Z,27.70
2018-06-29T15:14:52.280Z,28.10
2018-06-29T15:17:20.750Z,28.60
2018-06-29T15:19:49.249Z,28.90
2018-06-29T15:22:18.317Z,28.70
2018-06-29T15:24:46.778Z,28.90
2018-06-29T15:27:16.232Z,28.50
2018-06-29T15:29:44.664Z,28.30
2018-06-29T15:32:13.197Z,28.40
2018-06-29T15:34:41.632Z,27.90
2018-06-29T15:37:10.272Z,28.20
2018-06-29T15:39:38.760Z,28.10
2018-06-29T15:42:07.257Z,28.10
2018-06-29T15:44:35.745Z,28.30
2018-06-29T15:47:04.224Z,27.80
2018-06-29T15:49:32.765Z,28.00
2018-06-29T15:52:01.269Z,28.10
2018-06-29T15:54:29.705Z,28.20
2018-06-29T15:56:58.388Z,27.90
2018-06-29T15:59:26.835Z,28.20
2018-06-29T16:01:55.317Z,28.10
2018-06-29T16:04:23.892Z,28.20
2018-06-29T16:06:52.385Z,28.50
2018-06-29T16:09:20.849Z,28.10
2018-06-29T16:11:49.392Z,27.90
2018-06-29T16:14:18.297Z,28.00
2018-06-29T16:16:46.797Z,27.60
2018-06-29T16:19:15.252Z,27.90
2018-06-29T16:21:43.839Z,27.50
2018-06-29T16:24:12.287Z,27.70
2018-06-29T16:26:40.783Z,28.00
2018-06-29T16:29:09.363Z,28.10
2018-06-29T16:31:37.837Z,27.90
2018-06-29T16:34:06.297Z,27.70
2018-06-29T16:36:34.868Z,27.60
2018-06-29T16:39:03.533Z,27.30
2018-06-29T16:41:32.173Z,27.40
2018-06-29T16:44:00.634Z,27.70
2018-06-29T16:46:29.077Z,27.50
2018-06-29T16:48:58.146Z,27.60
2018-06-29T16:51:26.603Z,28.00
2018-06-29T16:53:55.128Z,27.80
2018-06-29T16:56:23.637Z,27.60
2018-06-29T16:58:52.361Z,27.40
2018-06-29T17:01:20.880Z,27.40
2018-06-29T17:03:49.344Z,27.30
2018-06-29T17:06:17.792Z,27.20
2018-06-29T17:08:46.241Z,27.10
2018-06-29T17:11:14.692Z,27.20
2018-06-29T17:13:43.150Z,27.20
2018-06-29T17:16:11.860Z,27.00
2018-06-29T17:18:40.431Z,27.10
2018-06-29T17:21:09.148Z,27.00
2018-06-29T17:23:37.679Z,27.10
2018-06-29T17:26:06.140Z,27.10
2018-06-29T17:28:34.680Z,27.00
2018-06-29T17:31:03.342Z,26.90
2018-06-29T17:33:32.349Z,27.00
2018-06-29T17:36:00.317Z,26.90
2018-06-29T17:38:28.809Z,26.70
2018-06-29T17:40:57.250Z,26.70
2018-06-29T17:43:25.706Z,26.70
2018-06-29T17:45:54.137Z,26.80
2018-06-29T17:48:22.724Z,26.70
2018-06-29T17:50:51.140Z,26.60
2018-06-29T17:53:19.603Z,26.50
2018-06-29T17:55:48.109Z,26.60
2018-06-29T17:58:16.642Z,26.50
2018-06-29T18:00:45.115Z,26.50
2018-06-29T18:03:13.550Z,26.40
2018-06-29T18:05:42.167Z,26.40
2018-06-29T18:08:10.610Z,26.30
2018-06-29T18:10:39.868Z,26.40
2018-06-29T18:13:08.516Z,26.40
2018-06-29T18:15:36.853Z,26.40
2018-06-29T18:20:33.568Z,26.30
2018-06-29T18:23:02.176Z,26.10
2018-06-29T18:25:30.645Z,26.10
2018-06-29T18:27:59.098Z,26.00
2018-06-29T18:30:27.573Z,26.00
2018-06-29T18:32:56.289Z,25.90
2018-06-29T18:35:24.770Z,25.90
2018-06-29T18:37:53.329Z,25.80
2018-06-29T18:40:21.797Z,25.80
2018-06-29T18:42:50.447Z,25.80
2018-06-29T18:45:19.001Z,25.70
2018-06-29T18:47:47.933Z,25.60
2018-06-29T18:50:16.452Z,25.60
2018-06-29T18:52:44.928Z,25.50
2018-06-29T18:55:13.409Z,25.40
2018-06-29T18:57:41.879Z,25.30
2018-06-29T19:00:10.437Z,25.30
2018-06-29T19:02:38.893Z,25.20
2018-06-29T19:07:35.560Z,25.00
2018-06-29T19:10:04.077Z,24.90
2018-06-29T19:12:32.538Z,24.90
2018-06-29T19:15:01.164Z,24.80
2018-06-29T19:17:29.658Z,24.80
2018-06-29T19:19:58.132Z,24.70
2018-06-29T19:22:26.655Z,24.60
2018-06-29T19:24:55.204Z,24.50
2018-06-29T19:27:23.685Z,24.40
2018-06-29T19:29:52.178Z,24.40
2018-06-29T19:32:20.688Z,24.20
2018-06-29T19:34:49.609Z,24.20
2018-06-29T19:37:18.065Z,24.10
2018-06-29T19:39:46.643Z,24.00
2018-06-29T19:42:15.017Z,23.90
2018-06-29T19:44:43.477Z,23.90
2018-06-29T19:47:12.192Z,23.80
2018-06-29T19:49:40.685Z,23.70
2018-06-29T19:52:09.133Z,23.60
2018-06-29T19:54:37.746Z,23.50
2018-06-29T19:57:06.737Z,23.40
2018-06-29T19:59:35.195Z,23.40
2018-06-29T20:02:03.833Z,23.40
2018-06-29T20:04:32.337Z,23.30
2018-06-29T20:07:00.804Z,23.20
2018-06-29T20:09:29.301Z,23.10
2018-06-29T20:11:57.792Z,23.10
2018-06-29T20:14:26.261Z,22.90
2018-06-29T20:16:54.793Z,22.80
2018-06-29T20:19:23.250Z,22.70
2018-06-29T20:21:51.776Z,22.80
2018-06-29T20:24:20.328Z,22.70
2018-06-29T20:26:48.798Z,22.70
2018-06-29T20:29:17.255Z,22.60
2018-06-29T20:31:45.743Z,22.60
2018-06-29T20:34:14.245Z,22.50
2018-06-29T20:36:42.766Z,22.50
2018-06-29T20:39:12.620Z,22.50
2018-06-29T20:41:41.116Z,22.40
2018-06-29T20:44:09.572Z,22.30
2018-06-29T20:46:38.068Z,22.30
2018-06-29T20:49:06.714Z,22.20
2018-06-29T20:51:35.269Z,22.10
2018-06-29T20:54:03.745Z,22.10
2018-06-29T20:56:32.195Z,22.00
2018-06-29T20:59:00.621Z,22.00
2018-06-29T21:01:29.120Z,22.00
2018-06-29T21:03:57.732Z,22.00
2018-06-29T21:06:26.201Z,22.00
2018-06-29T21:08:54.685Z,22.00
2018-06-29T21:11:23.125Z,22.00
2018-06-29T21:13:51.572Z,22.00
2018-06-29T21:16:20.033Z,21.90
2018-06-29T21:18:48.575Z,21.90
2018-06-29T21:21:17.242Z,21.70
2018-06-29T21:23:45.673Z,21.70
2018-06-29T21:26:14.135Z,21.60
2018-06-29T21:28:43.145Z,21.60
2018-06-29T21:31:11.665Z,21.50
2018-06-29T21:36:08.274Z,21.40
2018-06-29T21:38:36.736Z,21.30
2018-06-29T21:41:05.224Z,21.20
2018-06-29T21:43:33.680Z,21.10
2018-06-29T21:46:02.160Z,21.00
2018-06-29T21:48:30.602Z,21.00
2018-06-29T21:50:59.053Z,20.90
2018-06-29T21:53:27.496Z,20.80
2018-06-29T21:55:55.970Z,20.80
2018-06-29T21:58:24.437Z,20.70
2018-06-29T22:00:54.522Z,20.70
2018-06-29T22:03:23.714Z,20.60
2018-06-29T22:05:52.202Z,20.50
2018-06-29T22:10:48.824Z,20.40
2018-06-29T22:13:17.369Z,20.40
2018-06-29T22:15:45.842Z,20.40
2018-06-29T22:18:15.294Z,20.30
2018-06-29T22:20:43.798Z,20.30
2018-06-29T22:23:12.261Z,20.20
2018-06-29T22:25:40.759Z,20.30
2018-06-29T22:28:09.231Z,20.20
2018-06-29T22:30:37.709Z,20.20
2018-06-29T22:33:06.592Z,20.10
2018-06-29T22:35:35.085Z,20.00
2018-06-29T22:38:03.640Z,19.90
2018-06-29T22:40:32.131Z,19.90
2018-06-29T22:43:00.575Z,19.80
2018-06-29T22:45:29.084Z,19.70
2018-06-29T22:47:57.530Z,19.80
2018-06-29T22:50:26.022Z,19.70
2018-06-29T22:52:54.984Z,19.70
2018-06-29T22:55:23.417Z,19.60
2018-06-29T22:57:51.857Z,19.50
2018-06-29T23:00:20.289Z,19.60
2018-06-29T23:02:48.764Z,19.50
2018-06-29T23:05:17.201Z,19.50
2018-06-29T23:07:45.637Z,19.50
2018-06-29T23:12:48.663Z,19.50
2018-06-29T23:15:17.105Z,19.40
2018-06-29T23:17:45.560Z,19.30
2018-06-29T23:20:14.020Z,19.30
2018-06-29T23:22:42.521Z,19.30
2018-06-29T23:25:10.994Z,19.30
2018-06-29T23:27:39.497Z,19.20
2018-06-29T23:30:08.032Z,19.10
2018-06-29T23:32:36.527Z,19.00
2018-06-29T23:35:05.344Z,19.10
2018-06-29T23:37:33.791Z,19.00
2018-06-29T23:40:02.286Z,18.90
2018-06-29T23:42:30.724Z,18.70
2018-06-29T23:44:59.180Z,18.60
2018-06-29T23:47:27.608Z,18.70
2018-06-29T23:49:56.096Z,18.60
2018-06-29T23:52:24.551Z,18.60
2018-06-29T23:54:53.164Z,18.50
2018-06-29T23:57:21.584Z,18.50
2018-06-29T23:59:50.117Z,18.50
